Zenken Maru — JG5556 — position and weather

sailwx.info

Track history (hours):
 
Tides and Currents Weather Stations Pressure Air Temp Water Temp Dewpoint Dewpoint Depression Visibility Wind Speed Wind Dir Waves Ship Positions

Zenken Maru

Last reported at 2016-Dec-06 08:10 UTC. Time now 2016-Dec-07 14:33 UTC.
Position N 35°05' E 139°44'.

Length 98 m; draft 7.2 m.

Type: Cargo ship. MMSI: 431100955.

Date/timePositionNaut miles runAvg speedWind from/ knotsBaromVisibWave heightAir tempDewpointWater temp
2016-Dec-06 08:10N 35°05' E 139°44'712.2
2016-Dec-06 07:33N 35°12' E 139°46'1111.0
2016-Dec-06 06:33N 35°22' E 139°41'2 2.0
2016-Dec-06 05:33N 35°23' E 139°39'0 0.0
2016-Dec-06 04:33N 35°23' E 139°39'0 0.0
2016-Dec-06 03:33N 35°23' E 139°39'0 0.0
2016-Dec-06 02:30N 35°23' E 139°39'0 0.0
2016-Dec-06 01:33N 35°23' E 139°39'0 0.0
2016-Dec-06 00:33N 35°23' E 139°39'0 0.0
2016-Dec-05 23:33N 35°23' E 139°39'0 0.0
2016-Dec-05 22:33N 35°23' E 139°39'0 0.0
2016-Dec-05 21:33N 35°23' E 139°39'0 0.0
2016-Dec-05 20:33N 35°23' E 139°39'0 0.0
2016-Dec-05 19:33N 35°23' E 139°39'0 0.0
2016-Dec-05 18:33N 35°23' E 139°39'0 0.0
2016-Dec-05 17:33N 35°23' E 139°39'0 0.0
2016-Dec-05 16:33N 35°23' E 139°39'0 0.0
2016-Dec-05 15:33N 35°23' E 139°39'0 0.0
2016-Dec-05 14:33N 35°23' E 139°39'0 0.0
2016-Dec-05 13:33N 35°23' E 139°39'0 0.0
2016-Dec-05 12:33N 35°23' E 139°39'0 0.0
2016-Dec-05 11:33N 35°23' E 139°39'0 0.0
2016-Dec-05 10:33N 35°23' E 139°39'0 0.0
2016-Dec-05 08:33N 35°23' E 139°39'0 0.0
2016-Dec-05 07:33N 35°23' E 139°39'0 0.0
2016-Dec-05 06:33N 35°23' E 139°39'0 0.0
2016-Dec-05 05:33N 35°23' E 139°39'0 0.0
2016-Dec-05 04:33N 35°23' E 139°39'0 0.0
2016-Dec-05 03:33N 35°23' E 139°39'0 0.0
2016-Dec-05 02:33N 35°23' E 139°39'0 0.0
2016-Dec-05 01:30N 35°23' E 139°39'0 0.0
2016-Dec-05 00:30N 35°23' E 139°39'0 0.0
2016-Dec-04 23:33N 35°23' E 139°39'0 0.0
2016-Dec-04 22:33N 35°23' E 139°39'0 0.0
2016-Dec-04 21:33N 35°23' E 139°39'0 0.0
2016-Dec-04 20:33N 35°23' E 139°39'0 0.0
2016-Dec-04 19:33N 35°23' E 139°39'0 0.0
2016-Dec-04 18:33N 35°23' E 139°39'0 0.0
2016-Dec-04 17:33N 35°23' E 139°39'0 0.0
2016-Dec-04 16:33N 35°23' E 139°39'0 0.0
2016-Dec-04 15:33N 35°23' E 139°39'0 0.0
2016-Dec-04 14:33N 35°23' E 139°39'0 0.0
2016-Dec-04 13:33N 35°23' E 139°39'0 0.0
2016-Dec-04 12:33N 35°23' E 139°39'0 0.0
2016-Dec-04 11:33N 35°23' E 139°39'0 0.0
2016-Dec-04 10:33N 35°23' E 139°39'0 0.0
2016-Dec-04 09:33N 35°23' E 139°39'0 0.0
2016-Dec-04 08:33N 35°23' E 139°39'0 0.0
2016-Dec-04 07:33N 35°23' E 139°39'0 0.0
2016-Dec-04 06:33N 35°23' E 139°39'1 1.1
2016-Dec-04 05:33N 35°23' E 139°40'2 1.8
2016-Dec-04 04:31N 35°21' E 139°41'0 0.1
2016-Dec-04 03:31N 35°21' E 139°41'0 0.0
2016-Dec-04 02:31N 35°21' E 139°41'0 0.1
2016-Dec-04 01:34N 35°21' E 139°41'9 9.4
2016-Dec-04 00:33N 35°13' E 139°47'8 0.2
2016-Dec-02 12:31N 35°05' E 139°45'1211.6
2016-Dec-02 11:30N 35°17' E 139°45'8 8.7
2016-Dec-02 10:34N 35°23' E 139°39'0 0.0
2016-Dec-02 09:33N 35°23' E 139°39'0 0.0
2016-Dec-02 08:34N 35°23' E 139°39'0 0.0
2016-Dec-02 07:33N 35°23' E 139°39'0 0.0
2016-Dec-02 06:34N 35°23' E 139°39'0 0.0
2016-Dec-02 05:32N 35°23' E 139°39'0 0.0
2016-Dec-02 04:32N 35°23' E 139°39'0 0.0
2016-Dec-02 03:29N 35°23' E 139°39'0 0.0
2016-Dec-02 02:32N 35°23' E 139°39'0 0.0
2016-Dec-02 01:32N 35°23' E 139°39'0 0.0
2016-Dec-02 00:32N 35°23' E 139°39'0 0.0
2016-Dec-01 23:32N 35°23' E 139°39'0 0.0
2016-Dec-01 22:32N 35°23' E 139°39'0 0.0
2016-Dec-01 21:32N 35°23' E 139°39'0 0.0
2016-Dec-01 20:32N 35°23' E 139°39'0 0.0
2016-Dec-01 19:32N 35°23' E 139°39'0 0.0
2016-Dec-01 18:32N 35°23' E 139°39'0 0.0
2016-Dec-01 17:32N 35°23' E 139°39'0 0.0
2016-Dec-01 16:32N 35°23' E 139°39'0 0.0
2016-Dec-01 15:32N 35°23' E 139°39'0 0.0
2016-Dec-01 14:32N 35°23' E 139°39'0 0.0
2016-Dec-01 13:32N 35°23' E 139°39'0 0.0
2016-Dec-01 12:32N 35°23' E 139°39'0 0.0
2016-Dec-01 11:32N 35°23' E 139°39'0 0.0
2016-Dec-01 10:32N 35°23' E 139°39'0 0.0
2016-Dec-01 09:32N 35°23' E 139°39'0 0.0
2016-Dec-01 08:32N 35°23' E 139°39'0 0.0
2016-Dec-01 07:32N 35°23' E 139°39'0 0.0
2016-Dec-01 06:32N 35°23' E 139°39'0 0.0
2016-Dec-01 05:32N 35°23' E 139°39'0 0.0
2016-Dec-01 04:32N 35°23' E 139°39'0 0.0
2016-Dec-01 03:32N 35°23' E 139°39'0 0.0
2016-Dec-01 02:32N 35°23' E 139°39'0 0.0
2016-Dec-01 01:32N 35°23' E 139°39'0 0.0
2016-Dec-01 00:33N 35°23' E 139°39'2 2.0
2016-Nov-30 23:33N 35°22' E 139°41'1 1.1
2016-Nov-30 22:33N 35°21' E 139°41'0 0.0
2016-Nov-30 21:32N 35°21' E 139°41'0 0.0
2016-Nov-30 20:32N 35°21' E 139°41'0 0.0
2016-Nov-30 19:32N 35°21' E 139°41'0 0.1
2016-Nov-30 18:32N 35°21' E 139°41'0 0.0
2016-Nov-30 17:32N 35°21' E 139°41'0 0.1
2016-Nov-30 16:32N 35°21' E 139°41'0 0.0
2016-Nov-30 15:32N 35°21' E 139°41'0 0.0
2016-Nov-30 14:32N 35°21' E 139°41'0 0.0
2016-Nov-30 13:32N 35°21' E 139°41'0 0.0
2016-Nov-30 12:29N 35°21' E 139°41'0 0.0
2016-Nov-30 11:32N 35°21' E 139°41'0 0.0
2016-Nov-30 10:32N 35°21' E 139°41'0 0.0
2016-Nov-30 09:32N 35°21' E 139°41'0 0.0
2016-Nov-30 08:32N 35°21' E 139°41'0 0.0
2016-Nov-30 07:32N 35°21' E 139°41'0 0.1
2016-Nov-30 06:32N 35°21' E 139°41'0 0.1
2016-Nov-30 05:32N 35°21' E 139°41'0 0.0
2016-Nov-30 04:32N 35°21' E 139°41'0 0.0
2016-Nov-30 03:32N 35°21' E 139°41'0 0.0
2016-Nov-30 02:32N 35°21' E 139°41'0 0.0
2016-Nov-30 01:32N 35°21' E 139°41'0 0.0
2016-Nov-30 00:32N 35°21' E 139°41'0 0.0
2016-Nov-29 23:32N 35°21' E 139°41'0 0.0
2016-Nov-29 22:32N 35°21' E 139°41'0 0.0
2016-Nov-29 21:32N 35°21' E 139°41'0 0.0
2016-Nov-29 20:32N 35°21' E 139°41'0 0.0
2016-Nov-29 19:32N 35°21' E 139°41'0 0.1
2016-Nov-29 18:32N 35°21' E 139°41'0 0.0
2016-Nov-29 17:32N 35°21' E 139°41'0 0.0
2016-Nov-29 16:29N 35°21' E 139°41'0 0.0
2016-Nov-29 15:32N 35°21' E 139°41'0 0.0
2016-Nov-29 14:32N 35°21' E 139°41'0 0.0
2016-Nov-29 13:32N 35°21' E 139°41'0 0.0
2016-Nov-29 12:32N 35°21' E 139°41'0 0.0
2016-Nov-29 11:32N 35°21' E 139°41'0 0.0
2016-Nov-29 10:32N 35°21' E 139°41'0 0.0
2016-Nov-29 09:29N 35°21' E 139°41'0 0.0
2016-Nov-29 08:32N 35°21' E 139°41'0 0.0
2016-Nov-29 07:32N 35°21' E 139°41'0 0.0
2016-Nov-29 06:32N 35°21' E 139°41'0 0.0
2016-Nov-29 05:32N 35°21' E 139°41'0 0.0
2016-Nov-29 04:32N 35°21' E 139°41'0 0.0
2016-Nov-29 03:32N 35°21' E 139°41'0 0.0
2016-Nov-29 02:32N 35°21' E 139°41'0 0.0
2016-Nov-29 01:32N 35°21' E 139°41'0 0.0
2016-Nov-29 00:32N 35°21' E 139°41'0 0.0
2016-Nov-28 23:32N 35°21' E 139°41'0 0.0
2016-Nov-28 22:32N 35°21' E 139°41'0 0.0
2016-Nov-28 21:32N 35°21' E 139°41'0 0.0
2016-Nov-28 20:32N 35°21' E 139°41'0 0.0
2016-Nov-28 19:32N 35°21' E 139°41'0 0.0
2016-Nov-28 18:32N 35°21' E 139°41'0 0.0
2016-Nov-28 17:32N 35°21' E 139°41'0 0.0
2016-Nov-28 16:32N 35°21' E 139°41'0 0.0
2016-Nov-28 15:32N 35°21' E 139°41'0 0.1
2016-Nov-28 14:32N 35°21' E 139°41'0 0.0
2016-Nov-28 13:32N 35°21' E 139°41'0 0.0
2016-Nov-28 12:32N 35°21' E 139°41'0 0.0
2016-Nov-28 11:32N 35°21' E 139°41'0 0.0
2016-Nov-28 10:32N 35°21' E 139°41'0 0.0
2016-Nov-28 09:32N 35°21' E 139°41'0 0.0
2016-Nov-28 08:32N 35°21' E 139°41'0 0.0
2016-Nov-28 07:32N 35°21' E 139°41'0 0.0
2016-Nov-28 06:32N 35°21' E 139°41'3 2.9
2016-Nov-28 05:31N 35°23' E 139°39'0 0.0
2016-Nov-28 04:31N 35°23' E 139°39'0 0.0
2016-Nov-28 03:31N 35°23' E 139°39'0 0.0
2016-Nov-28 02:31N 35°23' E 139°39'0 0.0
2016-Nov-28 01:31N 35°23' E 139°39'0 0.0
2016-Nov-28 00:31N 35°23' E 139°39'0 0.0
2016-Nov-27 23:31N 35°23' E 139°39'0 0.0
2016-Nov-27 22:31N 35°23' E 139°39'0 0.0
2016-Nov-27 21:31N 35°23' E 139°39'0 0.0
2016-Nov-27 20:31N 35°23' E 139°39'0 0.0
2016-Nov-27 19:28N 35°23' E 139°39'0 0.0
2016-Nov-27 18:31N 35°23' E 139°39'0 0.0
2016-Nov-27 17:31N 35°23' E 139°39'0 0.0
2016-Nov-27 16:31N 35°23' E 139°39'0 0.0
2016-Nov-27 15:31N 35°23' E 139°39'0 0.0
2016-Nov-27 14:31N 35°23' E 139°39'0 0.0
2016-Nov-27 13:31N 35°23' E 139°39'0 0.0
2016-Nov-27 12:31N 35°23' E 139°39'0 0.0
2016-Nov-27 11:31N 35°23' E 139°39'0 0.0
2016-Nov-27 10:31N 35°23' E 139°39'0 0.0
2016-Nov-27 09:31N 35°23' E 139°39'0 0.0
2016-Nov-27 08:31N 35°23' E 139°39'0 0.0
2016-Nov-27 07:31N 35°23' E 139°39'0 0.0
2016-Nov-27 06:31N 35°23' E 139°39'0 0.0
2016-Nov-27 05:31N 35°23' E 139°39'0 0.0
2016-Nov-27 04:31N 35°23' E 139°39'0 0.0
2016-Nov-27 03:31N 35°23' E 139°39'0 0.0
2016-Nov-27 02:31N 35°23' E 139°39'0 0.0
2016-Nov-27 01:31N 35°23' E 139°39'0 0.0
2016-Nov-27 00:31N 35°23' E 139°39'0 0.0
2016-Nov-26 23:31N 35°23' E 139°39'0 0.1
2016-Nov-26 22:33N 35°23' E 139°39'6 5.6
2016-Nov-26 21:33N 35°19' E 139°44'9 8.8
2016-Nov-26 20:33N 35°11' E 139°46'  
Track history (hours):
 
Tides and Currents Weather Stations Pressure Air Temp Water Temp Dewpoint Dewpoint Depression Visibility Wind Speed Wind Dir Waves Ship Positions

Zenken Maru

Last reported at 2016-Dec-06 08:10 UTC. Time now 2016-Dec-07 14:33 UTC.
Position N 35°05' E 139°44'.

Length 98 m; draft 7.2 m.

Type: Cargo ship. MMSI: 431100955.

Date/timePositionNaut miles runAvg speedWind from/ knotsBaromVisibWave heightAir tempDewpointWater temp
2016-Dec-06 08:10N 35°05' E 139°44'712.2
2016-Dec-06 07:33N 35°12' E 139°46'1111.0
2016-Dec-06 06:33N 35°22' E 139°41'2 2.0
2016-Dec-06 05:33N 35°23' E 139°39'0 0.0
2016-Dec-06 04:33N 35°23' E 139°39'0 0.0
2016-Dec-06 03:33N 35°23' E 139°39'0 0.0
2016-Dec-06 02:30N 35°23' E 139°39'0 0.0
2016-Dec-06 01:33N 35°23' E 139°39'0 0.0
2016-Dec-06 00:33N 35°23' E 139°39'0 0.0
2016-Dec-05 23:33N 35°23' E 139°39'0 0.0
2016-Dec-05 22:33N 35°23' E 139°39'0 0.0
2016-Dec-05 21:33N 35°23' E 139°39'0 0.0
2016-Dec-05 20:33N 35°23' E 139°39'0 0.0
2016-Dec-05 19:33N 35°23' E 139°39'0 0.0
2016-Dec-05 18:33N 35°23' E 139°39'0 0.0
2016-Dec-05 17:33N 35°23' E 139°39'0 0.0
2016-Dec-05 16:33N 35°23' E 139°39'0 0.0
2016-Dec-05 15:33N 35°23' E 139°39'0 0.0
2016-Dec-05 14:33N 35°23' E 139°39'0 0.0
2016-Dec-05 13:33N 35°23' E 139°39'0 0.0
2016-Dec-05 12:33N 35°23' E 139°39'0 0.0
2016-Dec-05 11:33N 35°23' E 139°39'0 0.0
2016-Dec-05 10:33N 35°23' E 139°39'0 0.0
2016-Dec-05 08:33N 35°23' E 139°39'0 0.0
2016-Dec-05 07:33N 35°23' E 139°39'0 0.0
2016-Dec-05 06:33N 35°23' E 139°39'0 0.0
2016-Dec-05 05:33N 35°23' E 139°39'0 0.0
2016-Dec-05 04:33N 35°23' E 139°39'0 0.0
2016-Dec-05 03:33N 35°23' E 139°39'0 0.0
2016-Dec-05 02:33N 35°23' E 139°39'0 0.0
2016-Dec-05 01:30N 35°23' E 139°39'0 0.0
2016-Dec-05 00:30N 35°23' E 139°39'0 0.0
2016-Dec-04 23:33N 35°23' E 139°39'0 0.0
2016-Dec-04 22:33N 35°23' E 139°39'0 0.0
2016-Dec-04 21:33N 35°23' E 139°39'0 0.0
2016-Dec-04 20:33N 35°23' E 139°39'0 0.0
2016-Dec-04 19:33N 35°23' E 139°39'0 0.0
2016-Dec-04 18:33N 35°23' E 139°39'0 0.0
2016-Dec-04 17:33N 35°23' E 139°39'0 0.0
2016-Dec-04 16:33N 35°23' E 139°39'0 0.0
2016-Dec-04 15:33N 35°23' E 139°39'0 0.0
2016-Dec-04 14:33N 35°23' E 139°39'0 0.0
2016-Dec-04 13:33N 35°23' E 139°39'0 0.0
2016-Dec-04 12:33N 35°23' E 139°39'0 0.0
2016-Dec-04 11:33N 35°23' E 139°39'0 0.0
2016-Dec-04 10:33N 35°23' E 139°39'0 0.0
2016-Dec-04 09:33N 35°23' E 139°39'0 0.0
2016-Dec-04 08:33N 35°23' E 139°39'0 0.0
2016-Dec-04 07:33N 35°23' E 139°39'0 0.0
2016-Dec-04 06:33N 35°23' E 139°39'1 1.1
2016-Dec-04 05:33N 35°23' E 139°40'2 1.8
2016-Dec-04 04:31N 35°21' E 139°41'0 0.1
2016-Dec-04 03:31N 35°21' E 139°41'0 0.0
2016-Dec-04 02:31N 35°21' E 139°41'0 0.1
2016-Dec-04 01:34N 35°21' E 139°41'9 9.4
2016-Dec-04 00:33N 35°13' E 139°47'8 0.2
2016-Dec-02 12:31N 35°05' E 139°45'1211.6
2016-Dec-02 11:30N 35°17' E 139°45'8 8.7
2016-Dec-02 10:34N 35°23' E 139°39'0 0.0
2016-Dec-02 09:33N 35°23' E 139°39'0 0.0
2016-Dec-02 08:34N 35°23' E 139°39'0 0.0
2016-Dec-02 07:33N 35°23' E 139°39'0 0.0
2016-Dec-02 06:34N 35°23' E 139°39'0 0.0
2016-Dec-02 05:32N 35°23' E 139°39'0 0.0
2016-Dec-02 04:32N 35°23' E 139°39'0 0.0
2016-Dec-02 03:29N 35°23' E 139°39'0 0.0
2016-Dec-02 02:32N 35°23' E 139°39'0 0.0
2016-Dec-02 01:32N 35°23' E 139°39'0 0.0
2016-Dec-02 00:32N 35°23' E 139°39'0 0.0
2016-Dec-01 23:32N 35°23' E 139°39'0 0.0
2016-Dec-01 22:32N 35°23' E 139°39'0 0.0
2016-Dec-01 21:32N 35°23' E 139°39'0 0.0
2016-Dec-01 20:32N 35°23' E 139°39'0 0.0
2016-Dec-01 19:32N 35°23' E 139°39'0 0.0
2016-Dec-01 18:32N 35°23' E 139°39'0 0.0
2016-Dec-01 17:32N 35°23' E 139°39'0 0.0
2016-Dec-01 16:32N 35°23' E 139°39'0 0.0
2016-Dec-01 15:32N 35°23' E 139°39'0 0.0
2016-Dec-01 14:32N 35°23' E 139°39'0 0.0
2016-Dec-01 13:32N 35°23' E 139°39'0 0.0
2016-Dec-01 12:32N 35°23' E 139°39'0 0.0
2016-Dec-01 11:32N 35°23' E 139°39'0 0.0
2016-Dec-01 10:32N 35°23' E 139°39'0 0.0
2016-Dec-01 09:32N 35°23' E 139°39'0 0.0
2016-Dec-01 08:32N 35°23' E 139°39'0 0.0
2016-Dec-01 07:32N 35°23' E 139°39'0 0.0
2016-Dec-01 06:32N 35°23' E 139°39'0 0.0
2016-Dec-01 05:32N 35°23' E 139°39'0 0.0
2016-Dec-01 04:32N 35°23' E 139°39'0 0.0
2016-Dec-01 03:32N 35°23' E 139°39'0 0.0
2016-Dec-01 02:32N 35°23' E 139°39'0 0.0
2016-Dec-01 01:32N 35°23' E 139°39'0 0.0
2016-Dec-01 00:33N 35°23' E 139°39'2 2.0
2016-Nov-30 23:33N 35°22' E 139°41'1 1.1
2016-Nov-30 22:33N 35°21' E 139°41'0 0.0
2016-Nov-30 21:32N 35°21' E 139°41'0 0.0
2016-Nov-30 20:32N 35°21' E 139°41'0 0.0
2016-Nov-30 19:32N 35°21' E 139°41'0 0.1
2016-Nov-30 18:32N 35°21' E 139°41'0 0.0
2016-Nov-30 17:32N 35°21' E 139°41'0 0.1
2016-Nov-30 16:32N 35°21' E 139°41'0 0.0
2016-Nov-30 15:32N 35°21' E 139°41'0 0.0
2016-Nov-30 14:32N 35°21' E 139°41'0 0.0
2016-Nov-30 13:32N 35°21' E 139°41'0 0.0
2016-Nov-30 12:29N 35°21' E 139°41'0 0.0
2016-Nov-30 11:32N 35°21' E 139°41'0 0.0
2016-Nov-30 10:32N 35°21' E 139°41'0 0.0
2016-Nov-30 09:32N 35°21' E 139°41'0 0.0
2016-Nov-30 08:32N 35°21' E 139°41'0 0.0
2016-Nov-30 07:32N 35°21' E 139°41'0 0.1
2016-Nov-30 06:32N 35°21' E 139°41'0 0.1
2016-Nov-30 05:32N 35°21' E 139°41'0 0.0
2016-Nov-30 04:32N 35°21' E 139°41'0 0.0
2016-Nov-30 03:32N 35°21' E 139°41'0 0.0
2016-Nov-30 02:32N 35°21' E 139°41'0 0.0
2016-Nov-30 01:32N 35°21' E 139°41'0 0.0
2016-Nov-30 00:32N 35°21' E 139°41'0 0.0
2016-Nov-29 23:32N 35°21' E 139°41'0 0.0
2016-Nov-29 22:32N 35°21' E 139°41'0 0.0
2016-Nov-29 21:32N 35°21' E 139°41'0 0.0
2016-Nov-29 20:32N 35°21' E 139°41'0 0.0
2016-Nov-29 19:32N 35°21' E 139°41'0 0.1
2016-Nov-29 18:32N 35°21' E 139°41'0 0.0
2016-Nov-29 17:32N 35°21' E 139°41'0 0.0
2016-Nov-29 16:29N 35°21' E 139°41'0 0.0
2016-Nov-29 15:32N 35°21' E 139°41'0 0.0
2016-Nov-29 14:32N 35°21' E 139°41'0 0.0
2016-Nov-29 13:32N 35°21' E 139°41'0 0.0
2016-Nov-29 12:32N 35°21' E 139°41'0 0.0
2016-Nov-29 11:32N 35°21' E 139°41'0 0.0
2016-Nov-29 10:32N 35°21' E 139°41'0 0.0
2016-Nov-29 09:29N 35°21' E 139°41'0 0.0
2016-Nov-29 08:32N 35°21' E 139°41'0 0.0
2016-Nov-29 07:32N 35°21' E 139°41'0 0.0
2016-Nov-29 06:32N 35°21' E 139°41'0 0.0
2016-Nov-29 05:32N 35°21' E 139°41'0 0.0
2016-Nov-29 04:32N 35°21' E 139°41'0 0.0
2016-Nov-29 03:32N 35°21' E 139°41'0 0.0
2016-Nov-29 02:32N 35°21' E 139°41'0 0.0
2016-Nov-29 01:32N 35°21' E 139°41'0 0.0
2016-Nov-29 00:32N 35°21' E 139°41'0 0.0
2016-Nov-28 23:32N 35°21' E 139°41'0 0.0
2016-Nov-28 22:32N 35°21' E 139°41'0 0.0
2016-Nov-28 21:32N 35°21' E 139°41'0 0.0
2016-Nov-28 20:32N 35°21' E 139°41'0 0.0
2016-Nov-28 19:32N 35°21' E 139°41'0 0.0
2016-Nov-28 18:32N 35°21' E 139°41'0 0.0
2016-Nov-28 17:32N 35°21' E 139°41'0 0.0
2016-Nov-28 16:32N 35°21' E 139°41'0 0.0
2016-Nov-28 15:32N 35°21' E 139°41'0 0.1
2016-Nov-28 14:32N 35°21' E 139°41'0 0.0
2016-Nov-28 13:32N 35°21' E 139°41'0 0.0
2016-Nov-28 12:32N 35°21' E 139°41'0 0.0
2016-Nov-28 11:32N 35°21' E 139°41'0 0.0
2016-Nov-28 10:32N 35°21' E 139°41'0 0.0
2016-Nov-28 09:32N 35°21' E 139°41'0 0.0
2016-Nov-28 08:32N 35°21' E 139°41'0 0.0
2016-Nov-28 07:32N 35°21' E 139°41'0 0.0
2016-Nov-28 06:32N 35°21' E 139°41'3 2.9
2016-Nov-28 05:31N 35°23' E 139°39'0 0.0
2016-Nov-28 04:31N 35°23' E 139°39'0 0.0
2016-Nov-28 03:31N 35°23' E 139°39'0 0.0
2016-Nov-28 02:31N 35°23' E 139°39'0 0.0
2016-Nov-28 01:31N 35°23' E 139°39'0 0.0
2016-Nov-28 00:31N 35°23' E 139°39'0 0.0
2016-Nov-27 23:31N 35°23' E 139°39'0 0.0
2016-Nov-27 22:31N 35°23' E 139°39'0 0.0
2016-Nov-27 21:31N 35°23' E 139°39'0 0.0
2016-Nov-27 20:31N 35°23' E 139°39'0 0.0
2016-Nov-27 19:28N 35°23' E 139°39'0 0.0
2016-Nov-27 18:31N 35°23' E 139°39'0 0.0
2016-Nov-27 17:31N 35°23' E 139°39'0 0.0
2016-Nov-27 16:31N 35°23' E 139°39'0 0.0
2016-Nov-27 15:31N 35°23' E 139°39'0 0.0
2016-Nov-27 14:31N 35°23' E 139°39'0 0.0
2016-Nov-27 13:31N 35°23' E 139°39'0 0.0
2016-Nov-27 12:31N 35°23' E 139°39'0 0.0
2016-Nov-27 11:31N 35°23' E 139°39'0 0.0
2016-Nov-27 10:31N 35°23' E 139°39'0 0.0
2016-Nov-27 09:31N 35°23' E 139°39'0 0.0
2016-Nov-27 08:31N 35°23' E 139°39'0 0.0
2016-Nov-27 07:31N 35°23' E 139°39'0 0.0
2016-Nov-27 06:31N 35°23' E 139°39'0 0.0
2016-Nov-27 05:31N 35°23' E 139°39'0 0.0
2016-Nov-27 04:31N 35°23' E 139°39'0 0.0
2016-Nov-27 03:31N 35°23' E 139°39'0 0.0
2016-Nov-27 02:31N 35°23' E 139°39'0 0.0
2016-Nov-27 01:31N 35°23' E 139°39'0 0.0
2016-Nov-27 00:31N 35°23' E 139°39'0 0.0
2016-Nov-26 23:31N 35°23' E 139°39'0 0.1
2016-Nov-26 22:33N 35°23' E 139°39'6 5.6
2016-Nov-26 21:33N 35°19' E 139°44'9 8.8
2016-Nov-26 20:33N 35°11' E 139°46'  

Dump ship's entire track history